createdAt,value
2023-04-18T00:00:42.311Z,100.00
2023-04-18T00:03:09.945Z,100.00
2023-04-18T00:05:37.977Z,100.00
2023-04-18T00:08:05.445Z,100.00
2023-04-18T00:10:33.161Z,100.00
2023-04-18T00:13:00.521Z,100.00
2023-04-18T00:15:29.273Z,100.00
2023-04-18T00:17:56.984Z,100.00
2023-04-18T00:20:26.214Z,100.00
2023-04-18T00:22:53.256Z,100.00
2023-04-18T00:25:20.817Z,100.00
2023-04-18T00:27:47.786Z,100.00
2023-04-18T00:30:15.484Z,100.00
2023-04-18T00:32:42.437Z,100.00
2023-04-18T00:35:09.494Z,100.00
2023-04-18T00:37:37.262Z,100.00
2023-04-18T00:40:05.672Z,100.00
2023-04-18T00:42:33.632Z,100.00
2023-04-18T00:45:00.878Z,100.00
2023-04-18T00:47:27.817Z,100.00
2023-04-18T00:49:55.571Z,100.00
2023-04-18T00:52:22.839Z,100.00
2023-04-18T00:54:50.282Z,100.00
2023-04-18T00:57:17.576Z,100.00
2023-04-18T00:59:47.319Z,100.00
2023-04-18T01:02:14.304Z,100.00
2023-04-18T01:04:43.475Z,100.00
2023-04-18T01:07:10.498Z,100.00
2023-04-18T01:09:37.338Z,100.00
2023-04-18T01:12:04.495Z,100.00
2023-04-18T01:14:31.426Z,100.00
2023-04-18T01:16:58.949Z,100.00
2023-04-18T01:19:26.442Z,100.00
2023-04-18T01:21:54.645Z,100.00
2023-04-18T01:24:24.668Z,100.00
2023-04-18T01:26:52.094Z,100.00
2023-04-18T01:29:18.966Z,100.00
2023-04-18T01:31:46.258Z,100.00
2023-04-18T01:34:17.851Z,100.00
2023-04-18T01:36:45.662Z,100.00
2023-04-18T01:39:13.731Z,100.00
2023-04-18T01:41:42.396Z,100.00
2023-04-18T01:44:10.128Z,100.00
2023-04-18T01:46:37.120Z,100.00
2023-04-18T01:49:04.014Z,100.00
2023-04-18T01:51:31.422Z,100.00
2023-04-18T01:53:58.610Z,100.00
2023-04-18T01:56:25.690Z,100.00
2023-04-18T01:58:52.586Z,100.00
2023-04-18T02:01:19.491Z,100.00
2023-04-18T02:03:46.982Z,100.00
2023-04-18T02:06:14.095Z,100.00
2023-04-18T02:08:41.020Z,100.00
2023-04-18T02:11:08.033Z,100.00
2023-04-18T02:13:35.280Z,100.00
2023-04-18T02:16:11.890Z,100.00
2023-04-18T02:18:40.240Z,100.00
2023-04-18T02:21:07.307Z,100.00
2023-04-18T02:23:34.249Z,100.00
2023-04-18T02:26:01.311Z,100.00
2023-04-18T02:28:28.285Z,100.00
2023-04-18T02:30:55.116Z,100.00
2023-04-18T02:33:21.934Z,100.00
2023-04-18T02:35:48.782Z,100.00
2023-04-18T02:38:16.233Z,100.00
2023-04-18T02:40:43.144Z,100.00
2023-04-18T02:43:10.154Z,100.00
2023-04-18T02:45:37.272Z,100.00
2023-04-18T02:48:05.131Z,100.00
2023-04-18T02:50:35.578Z,100.00
2023-04-18T02:53:02.803Z,100.00
2023-04-18T02:55:41.671Z,100.00
2023-04-18T02:58:09.286Z,100.00
2023-04-18T03:00:56.213Z,100.00
2023-04-18T03:03:42.355Z,100.00
2023-04-18T03:06:38.712Z,100.00
2023-04-18T03:09:06.360Z,100.00
2023-04-18T03:11:36.306Z,100.00
2023-04-18T03:14:03.953Z,100.00
2023-04-18T03:16:40.549Z,100.00
2023-04-18T03:19:10.663Z,100.00
2023-04-18T03:21:37.977Z,100.00
2023-04-18T03:24:05.307Z,100.00
2023-04-18T03:26:33.887Z,100.00
2023-04-18T03:29:03.003Z,100.00
2023-04-18T03:31:30.068Z,100.00
2023-04-18T03:33:57.104Z,100.00
2023-04-18T03:36:25.436Z,100.00
2023-04-18T03:38:54.868Z,100.00
2023-04-18T03:41:21.916Z,100.00
2023-04-18T03:43:48.917Z,100.00
2023-04-18T03:46:15.907Z,100.00
2023-04-18T03:48:43.014Z,100.00
2023-04-18T03:51:12.219Z,100.00
2023-04-18T03:53:39.551Z,100.00
2023-04-18T03:56:07.234Z,100.00
2023-04-18T03:58:55.124Z,100.00
2023-04-18T04:01:22.728Z,100.00
2023-04-18T04:03:51.943Z,100.00
2023-04-18T04:06:19.043Z,100.00
2023-04-18T04:08:46.057Z,100.00
2023-04-18T04:11:14.940Z,100.00
2023-04-18T04:13:42.832Z,100.00
2023-04-18T04:16:11.390Z,100.00
2023-04-18T04:18:38.618Z,100.00
2023-04-18T04:21:06.832Z,100.00
2023-04-18T04:23:43.002Z,100.00
2023-04-18T04:26:15.218Z,100.00
2023-04-18T04:28:53.949Z,100.00
2023-04-18T04:31:24.293Z,100.00
2023-04-18T04:33:51.290Z,100.00
2023-04-18T04:36:23.040Z,100.00
2023-04-18T04:38:52.918Z,100.00
2023-04-18T04:41:27.846Z,100.00
2023-04-18T04:43:55.205Z,100.00
2023-04-18T04:46:30.391Z,100.00
2023-04-18T04:48:58.521Z,100.00
2023-04-18T04:51:28.055Z,100.00
2023-04-18T04:53:55.741Z,100.00
2023-04-18T04:56:23.897Z,100.00
2023-04-18T04:58:51.302Z,100.00
2023-04-18T05:01:22.966Z,100.00
2023-04-18T05:03:51.892Z,100.00
2023-04-18T05:06:20.838Z,100.00
2023-04-18T05:08:51.256Z,100.00
2023-04-18T05:11:18.280Z,100.00
2023-04-18T05:13:45.301Z,100.00
2023-04-18T05:16:12.341Z,100.00
2023-04-18T05:18:41.132Z,100.00
2023-04-18T05:21:10.929Z,100.00
2023-04-18T05:23:37.839Z,100.00
2023-04-18T05:26:05.873Z,100.00
2023-04-18T05:28:32.965Z,100.00
2023-04-18T05:31:02.902Z,100.00
2023-04-18T05:33:31.402Z,100.00
2023-04-18T05:35:59.107Z,100.00
2023-04-18T05:38:26.655Z,100.00
2023-04-18T05:40:55.821Z,100.00
2023-04-18T05:43:23.390Z,100.00
2023-04-18T05:45:52.409Z,100.00
2023-04-18T05:48:19.825Z,100.00
2023-04-18T05:50:46.873Z,100.00
2023-04-18T05:53:13.863Z,100.00
2023-04-18T05:55:41.325Z,100.00
2023-04-18T05:58:08.320Z,100.00
2023-04-18T06:00:35.843Z,100.00
2023-04-18T06:03:03.076Z,100.00
2023-04-18T06:05:30.715Z,100.00
2023-04-18T06:07:58.021Z,100.00
2023-04-18T06:10:25.139Z,100.00
2023-04-18T06:12:52.039Z,100.00
2023-04-18T06:15:19.070Z,100.00
2023-04-18T06:17:46.118Z,100.00
2023-04-18T06:20:13.445Z,100.00
2023-04-18T06:22:40.640Z,100.00
2023-04-18T06:25:09.980Z,100.00
2023-04-18T06:27:38.969Z,100.00
2023-04-18T06:30:08.889Z,100.00
2023-04-18T06:32:36.164Z,100.00
2023-04-18T06:35:03.181Z,100.00
2023-04-18T06:37:30.152Z,95.66
2023-04-18T06:39:57.161Z,93.92
2023-04-18T06:42:24.222Z,90.53
2023-04-18T06:44:51.067Z,89.81
2023-04-18T06:47:18.098Z,88.96
2023-04-18T06:49:45.048Z,84.02
2023-04-18T06:52:12.012Z,82.87
2023-04-18T06:54:38.900Z,80.25
2023-04-18T06:57:06.462Z,80.32
2023-04-18T06:59:33.387Z,80.20
2023-04-18T07:02:00.291Z,78.94
2023-04-18T07:04:27.306Z,77.59
2023-04-18T07:06:54.700Z,79.31
2023-04-18T07:09:22.748Z,79.49
2023-04-18T07:11:51.216Z,78.88
2023-04-18T07:14:19.979Z,80.10
2023-04-18T07:16:47.216Z,79.77
2023-04-18T07:19:14.377Z,79.91
2023-04-18T07:21:43.706Z,80.10
2023-04-18T07:24:11.450Z,80.92
2023-04-18T07:26:38.945Z,80.81
2023-04-18T07:29:05.915Z,79.25
2023-04-18T07:31:33.075Z,78.52
2023-04-18T07:34:00.143Z,78.73
2023-04-18T07:36:28.394Z,79.39
2023-04-18T07:38:55.367Z,80.24
2023-04-18T07:41:22.972Z,80.89
2023-04-18T07:43:49.804Z,76.87
2023-04-18T07:46:16.946Z,76.42
2023-04-18T07:48:43.940Z,75.78
2023-04-18T07:51:11.966Z,77.12
2023-04-18T07:53:41.035Z,76.41
2023-04-18T07:56:08.047Z,74.52
2023-04-18T07:58:35.111Z,73.84
2023-04-18T08:01:02.791Z,72.60
2023-04-18T08:03:30.323Z,72.80
2023-04-18T08:05:57.344Z,72.59
2023-04-18T08:08:24.295Z,72.13
2023-04-18T08:10:51.638Z,70.54
2023-04-18T08:13:18.588Z,70.66
2023-04-18T08:15:46.716Z,71.08
2023-04-18T08:18:13.770Z,70.63
2023-04-18T08:20:40.917Z,72.25
2023-04-18T08:23:11.154Z,71.38
2023-04-18T08:25:39.858Z,71.50
2023-04-18T08:28:08.444Z,73.26
2023-04-18T08:30:35.470Z,72.46
2023-04-18T08:33:02.753Z,71.81
2023-04-18T08:35:29.806Z,71.14
2023-04-18T08:37:56.694Z,70.46
2023-04-18T08:40:24.471Z,70.38
2023-04-18T08:42:53.408Z,70.24
2023-04-18T08:45:20.997Z,71.46
2023-04-18T08:47:48.233Z,69.78
2023-04-18T08:50:16.609Z,69.66
2023-04-18T08:52:49.980Z,71.20
2023-04-18T08:55:17.058Z,70.41
2023-04-18T08:57:45.027Z,70.61
2023-04-18T09:00:12.776Z,72.66
2023-04-18T09:02:45.113Z,71.44
2023-04-18T09:05:19.771Z,72.23
2023-04-18T09:07:51.522Z,70.98
2023-04-18T09:10:33.265Z,70.30
2023-04-18T09:13:03.548Z,70.69
2023-04-18T09:15:30.971Z,71.75
2023-04-18T09:18:02.311Z,69.92
2023-04-18T09:20:43.835Z,70.58
2023-04-18T09:23:14.911Z,72.01
2023-04-18T09:25:44.419Z,73.91
2023-04-18T09:28:29.508Z,71.09
2023-04-18T09:30:58.911Z,71.43
2023-04-18T09:33:36.775Z,71.46
2023-04-18T09:36:21.496Z,70.99
2023-04-18T09:38:49.734Z,71.53
2023-04-18T09:41:19.846Z,69.33
2023-04-18T09:43:48.334Z,67.84
2023-04-18T09:46:17.765Z,68.55
2023-04-18T09:48:44.886Z,67.99
2023-04-18T09:51:15.869Z,66.13
2023-04-18T09:53:47.888Z,67.76
2023-04-18T09:56:23.922Z,67.91
2023-04-18T09:58:57.138Z,67.76
2023-04-18T10:01:28.969Z,68.00
2023-04-18T10:03:57.726Z,66.41
2023-04-18T10:06:27.485Z,66.76
2023-04-18T10:08:55.175Z,65.63
2023-04-18T10:11:24.290Z,66.06
2023-04-18T10:13:56.394Z,65.58
2023-04-18T10:16:24.317Z,66.10
2023-04-18T10:18:52.373Z,65.80
2023-04-18T10:21:19.268Z,66.55
2023-04-18T10:23:48.917Z,65.07
2023-04-18T10:26:16.431Z,64.70
2023-04-18T10:28:59.667Z,65.35
2023-04-18T10:31:28.764Z,65.13
2023-04-18T10:36:28.784Z,63.93
2023-04-18T10:39:21.059Z,65.36
2023-04-18T10:41:51.723Z,66.22
2023-04-18T10:44:23.568Z,65.80
2023-04-18T10:46:51.177Z,65.92
2023-04-18T10:49:27.845Z,66.64
2023-04-18T10:52:00.691Z,63.44
2023-04-18T10:54:28.551Z,65.33
2023-04-18T10:56:57.094Z,65.06
2023-04-18T10:59:25.429Z,65.89
2023-04-18T11:01:59.624Z,65.20
2023-04-18T11:04:28.756Z,65.56
2023-04-18T11:06:57.543Z,65.36
2023-04-18T11:09:25.314Z,66.25
2023-04-18T11:12:06.553Z,66.47
2023-04-18T11:14:44.662Z,67.47
2023-04-18T11:17:18.300Z,67.82
2023-04-18T11:19:45.740Z,65.65
2023-04-18T11:22:12.968Z,66.80
2023-04-18T11:24:39.968Z,66.67
2023-04-18T11:27:10.476Z,65.37
2023-04-18T11:29:38.140Z,64.72
2023-04-18T11:32:09.520Z,64.95
2023-04-18T11:34:36.650Z,63.77
2023-04-18T11:37:07.786Z,64.41
2023-04-18T11:39:40.916Z,63.39
2023-04-18T11:42:09.071Z,62.68
2023-04-18T11:44:39.714Z,62.27
2023-04-18T11:47:23.096Z,62.06
2023-04-18T11:49:58.012Z,62.25
2023-04-18T11:52:29.845Z,63.54
2023-04-18T11:54:58.230Z,61.43
2023-04-18T11:57:28.576Z,62.24
2023-04-18T11:59:58.136Z,63.69
2023-04-18T12:02:27.977Z,61.95
2023-04-18T12:04:59.948Z,61.67
2023-04-18T12:07:45.887Z,62.89
2023-04-18T12:10:31.096Z,62.09
2023-04-18T12:12:59.208Z,62.39
2023-04-18T12:15:28.324Z,62.21
2023-04-18T12:18:00.871Z,61.39
2023-04-18T12:20:54.667Z,61.08
2023-04-18T12:23:40.409Z,61.80
2023-04-18T12:26:12.121Z,62.82
2023-04-18T12:28:39.107Z,62.56
2023-04-18T12:31:07.381Z,59.51
2023-04-18T12:33:36.682Z,60.15
2023-04-18T12:36:05.538Z,58.69
2023-04-18T12:38:32.444Z,60.93
2023-04-18T12:40:59.274Z,60.47
2023-04-18T12:43:26.617Z,60.43
2023-04-18T12:45:53.739Z,63.88
2023-04-18T12:48:21.055Z,66.04
2023-04-18T12:50:48.048Z,67.20
2023-04-18T12:53:14.931Z,67.98
2023-04-18T12:55:41.881Z,68.40
2023-04-18T12:58:08.871Z,70.02
2023-04-18T13:00:35.925Z,71.85
2023-04-18T13:03:03.102Z,71.74
2023-04-18T13:05:33.018Z,73.33
2023-04-18T13:10:31.891Z,73.26
2023-04-18T13:12:58.742Z,73.95
2023-04-18T13:15:27.573Z,74.14
2023-04-18T13:17:56.248Z,70.72
2023-04-18T13:20:23.445Z,72.31
2023-04-18T13:22:50.461Z,70.76
2023-04-18T13:25:17.384Z,71.47
2023-04-18T13:27:45.883Z,71.38
2023-04-18T13:30:13.222Z,73.25
2023-04-18T13:32:41.301Z,72.93
2023-04-18T13:35:11.212Z,72.57
2023-04-18T13:37:38.750Z,73.20
2023-04-18T13:40:06.870Z,75.27
2023-04-18T13:42:35.903Z,73.50
2023-04-18T13:45:03.309Z,72.63
2023-04-18T13:47:30.673Z,69.72
2023-04-18T13:49:57.879Z,70.47
2023-04-18T13:52:26.156Z,70.42
2023-04-18T13:54:53.309Z,68.20
2023-04-18T13:57:21.021Z,68.10
2023-04-18T13:59:48.069Z,69.33
2023-04-18T14:02:15.221Z,68.03
2023-04-18T14:04:42.716Z,69.58
2023-04-18T14:07:09.887Z,68.77
2023-04-18T14:09:36.755Z,68.85
2023-04-18T14:12:03.833Z,65.73
2023-04-18T14:14:30.862Z,66.79
2023-04-18T14:16:57.857Z,68.75
2023-04-18T14:19:26.738Z,68.28
2023-04-18T14:21:53.752Z,68.90
2023-04-18T14:24:20.691Z,67.51
2023-04-18T14:26:48.136Z,62.33
2023-04-18T14:29:15.353Z,60.12
2023-04-18T14:31:42.599Z,59.77
2023-04-18T14:34:09.908Z,58.92
2023-04-18T14:36:37.045Z,58.37
2023-04-18T14:39:04.716Z,59.11
2023-04-18T14:41:31.791Z,59.91
2023-04-18T14:43:59.212Z,59.00
2023-04-18T14:46:28.237Z,58.67
2023-04-18T14:48:55.334Z,59.01
2023-04-18T14:51:23.725Z,60.10
2023-04-18T14:53:50.667Z,60.66
2023-04-18T14:56:21.087Z,60.13
2023-04-18T14:58:48.514Z,59.05
2023-04-18T15:01:17.466Z,59.42
2023-04-18T15:03:44.907Z,60.33
2023-04-18T15:06:11.908Z,61.16
2023-04-18T15:08:38.888Z,60.70
2023-04-18T15:11:09.100Z,60.57
2023-04-18T15:13:36.840Z,60.60
2023-04-18T15:16:04.013Z,61.01
2023-04-18T15:18:31.288Z,61.54
2023-04-18T15:21:01.496Z,61.40
2023-04-18T15:23:28.352Z,61.17
2023-04-18T15:25:55.384Z,61.08
2023-04-18T15:28:22.298Z,61.63
2023-04-18T15:30:49.217Z,62.28
2023-04-18T15:33:20.442Z,62.71
2023-04-18T15:35:47.896Z,61.57
2023-04-18T15:38:14.880Z,62.14
2023-04-18T15:40:43.431Z,61.96
2023-04-18T15:43:10.394Z,63.08
2023-04-18T15:45:37.372Z,62.68
2023-04-18T15:48:04.633Z,64.62
2023-04-18T15:50:33.238Z,66.88
2023-04-18T15:53:00.800Z,69.95
2023-04-18T15:55:28.029Z,70.14
2023-04-18T15:57:55.560Z,69.82
2023-04-18T16:00:23.592Z,68.32
2023-04-18T16:02:50.980Z,66.71
2023-04-18T16:05:19.042Z,67.51
2023-04-18T16:07:45.948Z,68.78
2023-04-18T16:10:13.054Z,69.55
2023-04-18T16:12:40.467Z,68.34
2023-04-18T16:15:09.136Z,68.06
2023-04-18T16:17:37.668Z,68.99
2023-04-18T16:20:08.859Z,69.29
2023-04-18T16:22:36.702Z,68.74
2023-04-18T16:25:04.765Z,68.31
2023-04-18T16:27:32.272Z,67.92
2023-04-18T16:29:59.119Z,69.04
2023-04-18T16:32:26.093Z,68.37
2023-04-18T16:34:53.261Z,69.21
2023-04-18T16:37:20.426Z,68.41
2023-04-18T16:39:47.392Z,68.40
2023-04-18T16:42:15.907Z,69.70
2023-04-18T16:44:44.792Z,71.87
2023-04-18T16:47:11.929Z,72.37
2023-04-18T16:49:39.014Z,72.77
2023-04-18T16:52:05.939Z,71.94
2023-04-18T16:54:32.981Z,71.29
2023-04-18T16:56:59.896Z,71.52
2023-04-18T16:59:26.814Z,70.29
2023-04-18T17:01:53.883Z,70.83
2023-04-18T17:04:21.466Z,71.58
2023-04-18T17:06:49.670Z,72.38
2023-04-18T17:09:18.106Z,73.04
2023-04-18T17:11:45.033Z,73.05
2023-04-18T17:14:12.113Z,72.93
2023-04-18T17:16:40.211Z,73.06
2023-04-18T17:19:07.917Z,72.81
2023-04-18T17:21:35.687Z,74.29
2023-04-18T17:24:03.992Z,75.59
2023-04-18T17:26:31.527Z,76.01
2023-04-18T17:28:59.087Z,75.90
2023-04-18T17:31:26.338Z,77.10
2023-04-18T17:33:54.647Z,78.05
2023-04-18T17:36:21.743Z,78.18
2023-04-18T17:38:51.635Z,79.33
2023-04-18T17:41:20.234Z,79.35
2023-04-18T17:43:48.282Z,80.72
2023-04-18T17:46:15.703Z,81.37
2023-04-18T17:48:43.165Z,81.58
2023-04-18T17:51:10.218Z,81.72
2023-04-18T17:53:37.084Z,82.10
2023-04-18T17:56:04.718Z,83.06
2023-04-18T17:58:32.051Z,83.76
2023-04-18T18:00:59.100Z,85.04
2023-04-18T18:03:26.231Z,85.65
2023-04-18T18:05:55.004Z,86.58
2023-04-18T18:08:22.741Z,87.13
2023-04-18T18:10:50.130Z,87.81
2023-04-18T18:13:17.107Z,88.45
2023-04-18T18:15:44.036Z,89.18
2023-04-18T18:18:11.787Z,91.14
2023-04-18T18:20:42.042Z,91.72
2023-04-18T18:23:09.044Z,91.85
2023-04-18T18:25:37.667Z,93.26
2023-04-18T18:28:04.763Z,95.07
2023-04-18T18:30:32.469Z,95.27
2023-04-18T18:33:00.756Z,96.52
2023-04-18T18:35:27.829Z,97.42
2023-04-18T18:37:55.065Z,98.23
2023-04-18T18:40:22.112Z,99.03
2023-04-18T18:42:54.835Z,99.61
2023-04-18T18:45:21.946Z,100.00
2023-04-18T18:47:49.425Z,100.00
2023-04-18T18:50:16.621Z,100.00
2023-04-18T18:52:43.539Z,100.00
2023-04-18T18:55:11.234Z,100.00
2023-04-18T18:57:38.354Z,100.00
2023-04-18T19:00:12.275Z,100.00
2023-04-18T19:02:40.398Z,100.00
2023-04-18T19:05:07.939Z,100.00
2023-04-18T19:07:34.895Z,100.00
2023-04-18T19:10:01.901Z,100.00
2023-04-18T19:12:29.388Z,100.00
2023-04-18T19:14:56.465Z,100.00
2023-04-18T19:17:24.940Z,100.00
2023-04-18T19:19:53.146Z,100.00
2023-04-18T19:22:20.441Z,100.00
2023-04-18T19:24:47.571Z,100.00
2023-04-18T19:27:14.497Z,100.00
2023-04-18T19:29:41.625Z,100.00
2023-04-18T19:32:08.855Z,100.00
2023-04-18T19:34:36.174Z,100.00
2023-04-18T19:37:03.749Z,100.00
2023-04-18T19:39:30.749Z,100.00
2023-04-18T19:41:57.605Z,100.00
2023-04-18T19:44:24.798Z,100.00
2023-04-18T19:46:51.735Z,100.00
2023-04-18T19:49:18.820Z,100.00
2023-04-18T19:51:45.914Z,100.00
2023-04-18T19:54:13.447Z,100.00
2023-04-18T19:56:40.560Z,100.00
2023-04-18T19:59:07.691Z,100.00
2023-04-18T20:01:34.889Z,100.00
2023-04-18T20:04:02.315Z,100.00
2023-04-18T20:06:29.566Z,100.00
2023-04-18T20:08:56.922Z,100.00
2023-04-18T20:11:24.872Z,100.00
2023-04-18T20:13:54.711Z,100.00
2023-04-18T20:16:22.311Z,100.00
2023-04-18T20:18:50.102Z,100.00
2023-04-18T20:21:17.105Z,100.00
2023-04-18T20:23:45.385Z,100.00
2023-04-18T20:26:12.212Z,100.00
2023-04-18T20:28:39.118Z,100.00
2023-04-18T20:31:06.342Z,100.00
2023-04-18T20:33:33.364Z,100.00
2023-04-18T20:36:00.377Z,100.00
2023-04-18T20:38:29.894Z,100.00
2023-04-18T20:40:58.972Z,100.00
2023-04-18T20:43:26.091Z,100.00
2023-04-18T20:45:53.939Z,100.00
2023-04-18T20:48:21.323Z,100.00
2023-04-18T20:50:51.555Z,100.00
2023-04-18T20:53:21.084Z,100.00
2023-04-18T20:55:48.670Z,100.00
2023-04-18T20:58:15.845Z,100.00
2023-04-18T21:00:44.581Z,100.00
2023-04-18T21:03:14.961Z,100.00
2023-04-18T21:05:43.721Z,100.00
2023-04-18T21:08:13.527Z,100.00
2023-04-18T21:10:40.711Z,100.00
2023-04-18T21:13:09.210Z,100.00
2023-04-18T21:15:36.322Z,100.00
2023-04-18T21:18:03.369Z,100.00
2023-04-18T21:20:30.514Z,100.00
2023-04-18T21:22:57.427Z,100.00
2023-04-18T21:25:24.750Z,100.00
2023-04-18T21:27:51.887Z,100.00
2023-04-18T21:30:18.827Z,100.00
2023-04-18T21:32:47.313Z,100.00
2023-04-18T21:35:15.317Z,100.00
2023-04-18T21:37:43.524Z,100.00
2023-04-18T21:40:11.109Z,100.00
2023-04-18T21:42:38.264Z,100.00
2023-04-18T21:45:06.197Z,100.00
2023-04-18T21:47:33.221Z,100.00
2023-04-18T21:50:00.188Z,100.00
2023-04-18T21:52:27.041Z,100.00
2023-04-18T21:54:54.020Z,100.00
2023-04-18T21:57:21.257Z,100.00
2023-04-18T21:59:48.306Z,100.00
2023-04-18T22:02:15.665Z,100.00
2023-04-18T22:04:42.826Z,100.00
2023-04-18T22:07:11.451Z,100.00
2023-04-18T22:09:38.621Z,100.00
2023-04-18T22:12:05.694Z,100.00
2023-04-18T22:14:32.533Z,100.00
2023-04-18T22:17:01.754Z,100.00
2023-04-18T22:19:29.523Z,100.00
2023-04-18T22:21:56.433Z,100.00
2023-04-18T22:24:23.617Z,100.00
2023-04-18T22:26:50.637Z,100.00
2023-04-18T22:29:17.612Z,100.00
2023-04-18T22:31:44.592Z,100.00
2023-04-18T22:34:11.641Z,100.00
2023-04-18T22:36:38.458Z,100.00
2023-04-18T22:39:06.387Z,100.00
2023-04-18T22:41:33.373Z,100.00
2023-04-18T22:44:00.275Z,100.00
2023-04-18T22:46:27.418Z,100.00
2023-04-18T22:48:54.818Z,100.00
2023-04-18T22:51:23.692Z,100.00
2023-04-18T22:53:50.964Z,100.00
2023-04-18T22:56:17.889Z,100.00
2023-04-18T22:58:44.693Z,100.00
2023-04-18T23:01:11.743Z,100.00
2023-04-18T23:03:39.282Z,100.00
2023-04-18T23:06:08.956Z,100.00
2023-04-18T23:08:35.966Z,100.00
2023-04-18T23:11:02.854Z,100.00
2023-04-18T23:13:29.773Z,100.00
2023-04-18T23:15:56.747Z,100.00
2023-04-18T23:18:23.738Z,100.00
2023-04-18T23:20:50.815Z,100.00
2023-04-18T23:23:17.722Z,100.00
2023-04-18T23:25:44.584Z,100.00
2023-04-18T23:28:13.603Z,100.00
2023-04-18T23:30:40.631Z,100.00
2023-04-18T23:33:08.522Z,100.00
2023-04-18T23:35:35.545Z,100.00
2023-04-18T23:38:02.649Z,100.00
2023-04-18T23:40:30.062Z,100.00
2023-04-18T23:42:57.181Z,100.00
2023-04-18T23:45:24.719Z,100.00
2023-04-18T23:47:52.187Z,100.00
2023-04-18T23:50:19.658Z,100.00
2023-04-18T23:52:46.676Z,100.00
2023-04-18T23:55:14.138Z,100.00
2023-04-18T23:57:41.068Z,100.00
